createdAt,value
2022-09-10T00:02:13.493Z,21.35
2022-09-10T00:04:40.206Z,20.82
2022-09-10T00:07:09.796Z,21.23
2022-09-10T00:09:41.297Z,21.01
2022-09-10T00:12:15.031Z,20.78
2022-09-10T00:14:44.337Z,21.15
2022-09-10T00:17:10.999Z,20.82
2022-09-10T00:19:38.114Z,21.23
2022-09-10T00:22:04.838Z,20.70
2022-09-10T00:24:33.781Z,20.61
2022-09-10T00:27:00.423Z,21.32
2022-09-10T00:29:29.456Z,21.02
2022-09-10T00:31:59.141Z,21.13
2022-09-10T00:37:18.395Z,21.25
2022-09-10T00:39:47.361Z,20.12
2022-09-10T00:42:14.437Z,21.17
2022-09-10T00:44:41.478Z,21.28
2022-09-10T00:47:13.608Z,20.92
2022-09-10T00:49:49.722Z,19.98
2022-09-10T00:52:16.861Z,19.83
2022-09-10T00:54:47.267Z,20.86
2022-09-10T00:57:22.461Z,20.01
2022-09-10T00:59:55.918Z,21.11
2022-09-10T01:02:22.782Z,21.15
2022-09-10T01:04:52.524Z,20.99
2022-09-10T01:07:21.433Z,19.13
2022-09-10T01:09:48.276Z,20.99
2022-09-10T01:12:26.815Z,20.99
2022-09-10T01:15:13.168Z,20.80
2022-09-10T01:17:53.828Z,21.01
2022-09-10T01:20:31.371Z,21.03
2022-09-10T01:23:29.110Z,21.02
2022-09-10T01:26:31.444Z,21.05
2022-09-10T01:29:18.571Z,20.30
2022-09-10T01:32:04.299Z,20.58
2022-09-10T01:34:42.512Z,21.13
2022-09-10T01:37:16.184Z,20.17
2022-09-10T01:39:46.283Z,20.33
2022-09-10T01:42:13.107Z,20.63
2022-09-10T01:44:51.200Z,20.48
2022-09-10T01:47:32.568Z,20.65
2022-09-10T01:50:11.464Z,20.47
2022-09-10T01:53:02.747Z,20.47
2022-09-10T01:55:31.861Z,20.45
2022-09-10T01:58:33.628Z,20.43
2022-09-10T02:01:28.944Z,20.35
2022-09-10T02:03:59.644Z,20.27
2022-09-10T02:06:31.725Z,20.21
2022-09-10T02:09:00.627Z,20.00
2022-09-10T02:11:30.219Z,20.05
2022-09-10T02:14:02.887Z,19.38
2022-09-10T02:16:55.612Z,19.39
2022-09-10T02:19:22.522Z,19.85
2022-09-10T02:21:53.622Z,19.42
2022-09-10T02:24:22.769Z,19.82
2022-09-10T02:26:54.708Z,19.91
2022-09-10T02:29:21.909Z,19.87
2022-09-10T02:31:48.732Z,19.87
2022-09-10T02:34:16.297Z,19.84
2022-09-10T02:36:49.483Z,19.16
2022-09-10T02:39:16.274Z,19.50
2022-09-10T02:41:48.154Z,18.93
2022-09-10T02:44:17.908Z,18.99
2022-09-10T02:46:49.479Z,19.11
2022-09-10T02:49:16.226Z,19.07
2022-09-10T02:51:44.767Z,19.06
2022-09-10T02:54:11.614Z,17.82
2022-09-10T02:56:40.582Z,18.12
2022-09-10T02:59:07.631Z,18.66
2022-09-10T03:01:35.225Z,18.21
2022-09-10T03:04:08.122Z,18.01
2022-09-10T03:06:38.221Z,17.30
2022-09-10T03:09:05.130Z,17.48
2022-09-10T03:11:36.659Z,17.63
2022-09-10T03:14:05.691Z,17.51
2022-09-10T03:16:36.786Z,17.87
2022-09-10T03:19:09.179Z,17.57
2022-09-10T03:21:36.554Z,17.65
2022-09-10T03:24:05.319Z,17.79
2022-09-10T03:26:32.270Z,18.44
2022-09-10T03:28:59.433Z,17.78
2022-09-10T03:31:29.306Z,18.17
2022-09-10T03:33:59.717Z,18.58
2022-09-10T03:36:31.221Z,18.34
2022-09-10T03:39:01.157Z,18.68
2022-09-10T03:41:31.953Z,17.50
2022-09-10T03:43:59.607Z,17.97
2022-09-10T03:46:32.633Z,18.90
2022-09-10T03:49:02.389Z,17.60
2022-09-10T03:51:31.019Z,17.84
2022-09-10T03:54:00.521Z,18.85
2022-09-10T03:56:30.198Z,18.28
2022-09-10T03:58:57.435Z,15.96
2022-09-10T04:01:26.847Z,17.08
2022-09-10T04:03:57.083Z,18.50
2022-09-10T04:06:26.233Z,18.11
2022-09-10T04:08:55.165Z,17.69
2022-09-10T04:11:27.254Z,18.09
2022-09-10T04:14:00.356Z,17.28
2022-09-10T04:16:27.959Z,17.80
2022-09-10T04:18:57.892Z,17.52
2022-09-10T04:21:27.866Z,18.32
2022-09-10T04:23:56.687Z,18.85
2022-09-10T04:26:25.220Z,17.71
2022-09-10T04:28:54.762Z,17.67
2022-09-10T04:31:25.905Z,18.00
2022-09-10T04:33:56.432Z,17.53
2022-09-10T04:36:25.819Z,18.41
2022-09-10T04:38:56.042Z,18.17
2022-09-10T04:41:27.527Z,18.56
2022-09-10T04:43:54.460Z,16.94
2022-09-10T04:46:26.459Z,17.53
2022-09-10T04:48:55.163Z,17.03
2022-09-10T04:51:26.557Z,17.63
2022-09-10T04:53:54.335Z,17.14
2022-09-10T04:56:28.065Z,16.65
2022-09-10T04:58:57.465Z,17.76
2022-09-10T05:01:24.899Z,15.39
2022-09-10T05:03:55.883Z,17.75
2022-09-10T05:06:28.623Z,16.44
2022-09-10T05:08:58.488Z,17.08
2022-09-10T05:11:26.351Z,17.99
2022-09-10T05:13:58.797Z,17.85
2022-09-10T05:16:30.962Z,17.28
2022-09-10T05:19:00.213Z,18.22
2022-09-10T05:21:31.213Z,17.44
2022-09-10T05:23:58.614Z,17.41
2022-09-10T05:26:28.450Z,18.35
2022-09-10T05:28:57.229Z,17.11
2022-09-10T05:31:24.866Z,18.39
2022-09-10T05:33:55.386Z,17.04
2022-09-10T05:36:22.532Z,17.56
2022-09-10T05:38:51.559Z,17.60
2022-09-10T05:41:18.443Z,18.40
2022-09-10T05:43:48.445Z,19.05
2022-09-10T05:46:19.859Z,18.43
2022-09-10T05:48:54.287Z,19.38
2022-09-10T05:51:22.363Z,19.29
2022-09-10T05:53:50.080Z,19.61
2022-09-10T05:56:19.129Z,17.62
2022-09-10T05:58:48.248Z,18.83
2022-09-10T06:01:15.449Z,19.90
2022-09-10T06:03:43.303Z,18.81
2022-09-10T06:06:10.675Z,19.63
2022-09-10T06:08:41.923Z,19.03
2022-09-10T06:11:18.913Z,18.77
2022-09-10T06:13:49.122Z,18.80
2022-09-10T06:16:17.412Z,19.65
2022-09-10T06:18:45.233Z,19.24
2022-09-10T06:21:17.362Z,19.56
2022-09-10T06:23:47.467Z,20.37
2022-09-10T06:26:19.975Z,19.28
2022-09-10T06:28:51.704Z,19.89
2022-09-10T06:31:19.714Z,20.84
2022-09-10T06:33:49.960Z,20.76
2022-09-10T06:36:22.257Z,20.04
2022-09-10T06:38:53.547Z,21.03
2022-09-10T06:41:20.230Z,20.20
2022-09-10T06:43:54.552Z,20.44
2022-09-10T06:49:31.392Z,20.51
2022-09-10T06:51:58.212Z,19.47
2022-09-10T06:54:26.537Z,19.13
2022-09-10T06:56:59.524Z,19.94
2022-09-10T06:59:26.287Z,19.66
2022-09-10T07:01:53.063Z,20.10
2022-09-10T07:04:23.296Z,19.43
2022-09-10T07:06:52.167Z,19.42
2022-09-10T07:09:21.193Z,19.84
2022-09-10T07:11:59.476Z,20.34
2022-09-10T07:14:29.791Z,20.23
2022-09-10T07:16:57.609Z,20.40
2022-09-10T07:19:27.375Z,19.09
2022-09-10T07:21:58.998Z,20.02
2022-09-10T07:24:25.741Z,20.40
2022-09-10T07:27:11.812Z,19.16
2022-09-10T07:29:43.766Z,17.17
2022-09-10T07:32:14.702Z,19.66
2022-09-10T07:34:41.690Z,18.95
2022-09-10T07:37:10.884Z,17.57
2022-09-10T07:39:40.209Z,18.83
2022-09-10T07:42:11.706Z,19.08
2022-09-10T07:44:39.777Z,18.15
2022-09-10T07:47:08.822Z,18.40
2022-09-10T07:49:40.351Z,18.64
2022-09-10T07:52:10.833Z,18.06
2022-09-10T07:54:48.139Z,17.31
2022-09-10T07:57:17.582Z,18.73
2022-09-10T07:59:44.303Z,18.24
2022-09-10T08:02:15.787Z,18.81
2022-09-10T08:04:50.035Z,18.37
2022-09-10T08:07:19.409Z,18.88
2022-09-10T08:09:46.567Z,18.26
2022-09-10T08:12:17.714Z,18.51
2022-09-10T08:14:45.478Z,19.68
2022-09-10T08:17:18.684Z,19.01
2022-09-10T08:19:50.676Z,19.62
2022-09-10T08:22:18.580Z,19.03
2022-09-10T08:24:55.752Z,18.93
2022-09-10T08:27:25.630Z,19.42
2022-09-10T08:29:54.724Z,19.92
2022-09-10T08:32:22.273Z,20.31
2022-09-10T08:34:48.979Z,20.45
2022-09-10T08:37:19.453Z,20.53
2022-09-10T08:39:46.348Z,20.61
2022-09-10T08:42:21.604Z,20.21
2022-09-10T08:44:55.055Z,20.65
2022-09-10T08:47:29.855Z,21.38
2022-09-10T08:50:11.660Z,21.61
2022-09-10T08:52:49.060Z,21.36
2022-09-10T08:55:31.585Z,21.65
2022-09-10T08:58:23.245Z,21.90
2022-09-10T09:00:59.773Z,21.98
2022-09-10T09:03:45.870Z,22.03
2022-09-10T09:06:31.669Z,21.50
2022-09-10T09:09:00.566Z,22.12
2022-09-10T09:11:55.301Z,21.54
2022-09-10T09:15:05.805Z,21.66
2022-09-10T09:18:04.819Z,21.64
2022-09-10T09:20:46.641Z,21.85
2022-09-10T09:23:23.602Z,21.81
2022-09-10T09:26:04.540Z,21.51
2022-09-10T09:28:41.809Z,22.27
2022-09-10T09:31:13.590Z,22.17
2022-09-10T09:33:41.666Z,22.57
2022-09-10T09:36:13.625Z,22.76
2022-09-10T09:41:26.954Z,22.97
2022-09-10T09:44:24.890Z,22.89
2022-09-10T09:46:51.685Z,22.95
2022-09-10T09:49:19.237Z,23.09
2022-09-10T09:51:48.385Z,22.99
2022-09-10T09:57:20.527Z,22.63
2022-09-10T09:59:50.665Z,22.82
2022-09-10T10:02:25.359Z,23.25
2022-09-10T10:05:26.925Z,23.54
2022-09-10T10:07:56.706Z,22.82
2022-09-10T10:10:28.838Z,23.05
2022-09-10T10:13:00.718Z,22.65
2022-09-10T10:15:41.972Z,23.16
2022-09-10T10:18:25.189Z,23.31
2022-09-10T10:21:24.109Z,23.42
2022-09-10T10:23:50.851Z,22.81
2022-09-10T10:26:20.891Z,23.42
2022-09-10T10:29:01.461Z,23.27
2022-09-10T10:31:40.821Z,23.34
2022-09-10T10:34:09.630Z,23.40
2022-09-10T10:36:48.048Z,23.32
2022-09-10T10:39:26.730Z,22.92
2022-09-10T10:42:23.239Z,23.43
2022-09-10T10:45:11.153Z,24.03
2022-09-10T10:48:04.798Z,23.55
2022-09-10T10:50:53.137Z,23.97
2022-09-10T10:53:51.748Z,23.57
2022-09-10T10:56:30.423Z,24.45
2022-09-10T10:59:09.395Z,24.98
2022-09-10T11:01:44.948Z,25.32
2022-09-10T11:04:28.652Z,25.64
2022-09-10T11:07:24.828Z,25.76
2022-09-10T11:09:55.000Z,25.88
2022-09-10T11:13:13.087Z,26.24
2022-09-10T11:16:02.025Z,26.04
2022-09-10T11:18:34.614Z,26.33
2022-09-10T11:21:24.864Z,26.21
2022-09-10T11:24:16.839Z,25.86
2022-09-10T11:27:13.203Z,26.02
2022-09-10T11:30:04.207Z,25.18
2022-09-10T11:32:42.793Z,26.07
2022-09-10T11:35:37.022Z,26.09
2022-09-10T11:38:06.171Z,26.26
2022-09-10T11:40:39.366Z,25.90
2022-09-10T11:43:19.808Z,25.61
2022-09-10T11:45:52.799Z,25.19
2022-09-10T11:48:23.528Z,25.24
2022-09-10T11:51:01.286Z,24.07
2022-09-10T11:53:28.216Z,24.76
2022-09-10T11:56:07.291Z,25.22
2022-09-10T11:58:48.991Z,25.63
2022-09-10T12:01:49.343Z,25.49
2022-09-10T12:04:31.433Z,25.00
2022-09-10T12:07:35.259Z,25.19
2022-09-10T12:10:12.165Z,24.85
2022-09-10T12:12:45.147Z,25.17
2022-09-10T12:15:20.670Z,25.26
2022-09-10T12:18:12.692Z,25.42
2022-09-10T12:20:57.041Z,25.56
2022-09-10T12:23:30.141Z,26.07
2022-09-10T12:26:23.025Z,26.01
2022-09-10T12:29:25.920Z,26.14
2022-09-10T12:32:10.240Z,26.96
2022-09-10T12:34:40.027Z,27.45
2022-09-10T12:37:19.912Z,27.96
2022-09-10T12:39:47.121Z,27.24
2022-09-10T12:42:31.977Z,28.17
2022-09-10T12:45:01.111Z,28.68
2022-09-10T12:47:33.173Z,28.53
2022-09-10T12:50:03.978Z,28.29
2022-09-10T12:52:31.666Z,28.96
2022-09-10T12:55:29.017Z,28.79
2022-09-10T12:58:15.939Z,29.19
2022-09-10T13:01:02.876Z,30.60
2022-09-10T13:03:30.520Z,29.28
2022-09-10T13:06:09.749Z,29.80
2022-09-10T13:08:41.632Z,29.44
2022-09-10T13:11:11.630Z,29.17
2022-09-10T13:13:47.733Z,29.16
2022-09-10T13:16:22.120Z,28.24
2022-09-10T13:18:49.143Z,28.29
2022-09-10T13:21:25.013Z,29.66
2022-09-10T13:23:53.296Z,29.54
2022-09-10T13:26:28.436Z,28.74
2022-09-10T13:29:01.234Z,28.15
2022-09-10T13:31:34.794Z,26.19
2022-09-10T13:34:14.206Z,25.02
2022-09-10T13:36:55.352Z,25.46
2022-09-10T13:39:38.300Z,23.99
2022-09-10T13:42:27.320Z,27.34
2022-09-10T13:45:02.422Z,27.77
2022-09-10T13:51:13.637Z,28.67
2022-09-10T13:53:57.822Z,28.15
2022-09-10T14:11:53.154Z,32.86
2022-09-10T14:14:27.369Z,33.98
2022-09-10T14:16:59.702Z,34.39
2022-09-10T14:19:31.116Z,32.96
2022-09-10T14:22:00.447Z,32.99
2022-09-10T14:24:34.761Z,33.20
2022-09-10T14:27:05.279Z,33.35
2022-09-10T14:29:31.969Z,34.59
2022-09-10T14:32:37.380Z,34.61
2022-09-10T14:35:43.140Z,34.82
2022-09-10T14:38:31.742Z,33.09
2022-09-10T14:41:08.700Z,32.69
2022-09-10T14:43:40.468Z,32.35
2022-09-10T14:46:28.581Z,32.47
2022-09-10T14:48:58.233Z,32.65
2022-09-10T14:51:29.785Z,32.28
2022-09-10T14:53:58.153Z,32.19
2022-09-10T14:56:35.921Z,32.21
2022-09-10T14:59:11.873Z,32.85
2022-09-10T15:01:41.001Z,33.24
2022-09-10T15:04:15.856Z,33.64
2022-09-10T15:06:48.483Z,32.80
2022-09-10T15:09:23.953Z,31.28
2022-09-10T15:12:05.881Z,31.01
2022-09-10T15:14:38.987Z,30.68
2022-09-10T15:17:13.702Z,30.62
2022-09-10T15:19:42.703Z,31.97
2022-09-10T15:22:24.783Z,31.72
2022-09-10T15:25:11.445Z,31.87
2022-09-10T15:27:43.741Z,29.98
2022-09-10T15:30:11.845Z,31.81
2022-09-10T15:32:40.997Z,32.02
2022-09-10T15:35:10.014Z,31.62
2022-09-10T15:37:36.683Z,30.23
2022-09-10T15:40:06.288Z,28.30
2022-09-10T15:42:35.206Z,27.30
2022-09-10T15:45:01.949Z,26.88
2022-09-10T15:47:33.562Z,26.44
2022-09-10T15:50:00.356Z,25.80
2022-09-10T15:52:27.165Z,26.02
2022-09-10T15:54:54.377Z,25.41
2022-09-10T15:57:21.210Z,25.62
2022-09-10T15:59:49.405Z,25.79
2022-09-10T16:02:18.678Z,25.41
2022-09-10T16:04:47.405Z,24.89
2022-09-10T16:07:14.482Z,25.19
2022-09-10T16:09:42.767Z,24.96
2022-09-10T16:12:12.365Z,24.51
2022-09-10T16:14:44.526Z,23.82
2022-09-10T16:17:11.376Z,24.57
2022-09-10T16:19:41.123Z,24.08
2022-09-10T16:22:18.739Z,23.98
2022-09-10T16:24:49.691Z,23.59
2022-09-10T16:27:17.512Z,22.97
2022-09-10T16:29:49.440Z,23.26
2022-09-10T16:32:16.118Z,23.80
2022-09-10T16:34:43.020Z,22.76
2022-09-10T16:37:12.550Z,23.60
2022-09-10T16:39:49.130Z,22.81
2022-09-10T16:42:15.771Z,22.92
2022-09-10T16:44:44.652Z,22.92
2022-09-10T16:47:14.291Z,23.03
2022-09-10T16:49:41.312Z,22.98
2022-09-10T16:52:08.048Z,22.05
2022-09-10T16:54:40.743Z,22.07
2022-09-10T16:57:07.801Z,22.78
2022-09-10T16:59:35.362Z,22.48
2022-09-10T17:02:04.152Z,22.67
2022-09-10T17:04:35.977Z,22.09
2022-09-10T17:07:02.812Z,22.69
2022-09-10T17:09:29.533Z,22.46
2022-09-10T17:12:00.144Z,22.54
2022-09-10T17:14:26.838Z,22.43
2022-09-10T17:16:53.700Z,21.87
2022-09-10T17:19:26.288Z,21.67
2022-09-10T17:21:56.962Z,21.87
2022-09-10T17:24:25.925Z,22.16
2022-09-10T17:26:53.174Z,22.09
2022-09-10T17:29:22.344Z,21.13
2022-09-10T17:31:55.086Z,21.95
2022-09-10T17:34:42.916Z,20.86
2022-09-10T17:37:12.959Z,20.03
2022-09-10T17:39:41.942Z,20.41
2022-09-10T17:42:11.100Z,21.71
2022-09-10T17:44:37.777Z,21.19
2022-09-10T17:47:04.765Z,21.57
2022-09-10T17:49:31.823Z,21.03
2022-09-10T17:52:00.205Z,21.41
2022-09-10T17:54:30.443Z,21.19
2022-09-10T17:57:01.095Z,20.70
2022-09-10T17:59:31.254Z,21.40
2022-09-10T18:01:58.052Z,20.76
2022-09-10T18:04:28.070Z,20.64
2022-09-10T18:06:55.204Z,21.03
2022-09-10T18:09:29.953Z,21.06
2022-09-10T18:12:02.315Z,21.20
2022-09-10T18:14:42.178Z,20.52
2022-09-10T18:17:08.967Z,20.67
2022-09-10T18:19:43.344Z,21.11
2022-09-10T18:22:10.262Z,20.92
2022-09-10T18:24:40.010Z,21.03
2022-09-10T18:27:07.104Z,21.28
2022-09-10T18:29:33.788Z,20.58
2022-09-10T18:32:03.237Z,20.72
2022-09-10T18:34:34.200Z,20.92
2022-09-10T18:37:03.048Z,21.12
2022-09-10T18:39:31.766Z,20.72
2022-09-10T18:42:02.774Z,21.00
2022-09-10T18:44:36.961Z,20.87
2022-09-10T18:47:17.750Z,20.88
2022-09-10T18:49:50.554Z,20.87
2022-09-10T18:52:19.507Z,20.59
2022-09-10T18:54:49.001Z,19.93
2022-09-10T18:57:17.905Z,20.43
2022-09-10T18:59:47.663Z,20.01
2022-09-10T19:02:15.688Z,20.14
2022-09-10T19:05:07.326Z,20.53
2022-09-10T19:07:29.534Z,20.19
2022-09-10T19:09:56.305Z,19.74
2022-09-10T19:12:23.234Z,20.07
2022-09-10T19:14:52.015Z,20.45
2022-09-10T19:17:18.968Z,20.39
2022-09-10T19:19:47.552Z,19.52
2022-09-10T19:22:16.605Z,19.80
2022-09-10T19:24:54.452Z,20.07
2022-09-10T19:27:24.568Z,19.28
2022-09-10T19:29:52.023Z,19.17
2022-09-10T19:32:19.906Z,19.83
2022-09-10T19:34:52.190Z,18.98
2022-09-10T19:37:19.839Z,19.16
2022-09-10T19:39:49.208Z,19.15
2022-09-10T19:42:16.419Z,19.29
2022-09-10T19:44:48.144Z,19.34
2022-09-10T19:47:17.043Z,19.61
2022-09-10T19:49:43.736Z,19.12
2022-09-10T19:52:11.313Z,19.51
2022-09-10T19:54:40.774Z,19.46
2022-09-10T19:57:07.456Z,19.15
2022-09-10T19:59:34.183Z,19.49
2022-09-10T20:02:01.025Z,18.90
2022-09-10T20:04:28.216Z,19.00
2022-09-10T20:06:57.559Z,19.13
2022-09-10T20:09:29.386Z,19.23
2022-09-10T20:11:58.683Z,18.84
2022-09-10T20:14:25.456Z,19.28
2022-09-10T20:16:52.252Z,19.35
2022-09-10T20:19:20.306Z,18.78
2022-09-10T20:21:47.653Z,18.97
2022-09-10T20:24:17.225Z,18.74
2022-09-10T20:26:46.614Z,18.70
2022-09-10T20:29:15.401Z,18.62
2022-09-10T20:31:43.569Z,18.03
2022-09-10T20:34:19.566Z,18.56
2022-09-10T20:36:51.359Z,18.32
2022-09-10T20:39:22.422Z,17.85
2022-09-10T20:41:53.969Z,18.70
2022-09-10T20:44:23.136Z,17.93
2022-09-10T20:46:50.200Z,18.50
2022-09-10T20:49:19.410Z,17.22
2022-09-10T20:51:46.167Z,17.97
2022-09-10T20:54:17.432Z,18.06
2022-09-10T20:56:44.737Z,17.95
2022-09-10T20:59:19.300Z,18.60
2022-09-10T21:01:47.110Z,18.65
2022-09-10T21:04:14.274Z,18.08
2022-09-10T21:06:43.318Z,18.72
2022-09-10T21:09:12.559Z,18.22
2022-09-10T21:11:39.071Z,18.76
2022-09-10T21:14:07.543Z,18.83
2022-09-10T21:16:39.480Z,18.77
2022-09-10T21:19:11.795Z,17.65
2022-09-10T21:21:39.826Z,18.79
2022-09-10T21:24:16.869Z,18.25
2022-09-10T21:27:03.245Z,18.29
2022-09-10T21:29:32.544Z,18.70
2022-09-10T21:32:02.394Z,17.83
2022-09-10T21:34:32.521Z,18.46
2022-09-10T21:37:04.618Z,18.49
2022-09-10T21:39:31.729Z,18.03
2022-09-10T21:41:59.688Z,17.98
2022-09-10T21:44:26.347Z,17.82
2022-09-10T21:46:53.446Z,17.53
2022-09-10T21:49:20.526Z,18.62
2022-09-10T21:51:49.595Z,18.09
2022-09-10T21:54:23.630Z,18.78
2022-09-10T21:56:53.096Z,18.40
2022-09-10T21:59:20.580Z,18.35
2022-09-10T22:01:48.181Z,18.13
2022-09-10T22:04:22.226Z,18.51
2022-09-10T22:06:49.501Z,18.71
2022-09-10T22:09:16.422Z,18.55
2022-09-10T22:11:50.100Z,17.74
2022-09-10T22:14:21.393Z,18.48
2022-09-10T22:16:52.609Z,18.27
2022-09-10T22:19:24.890Z,18.52
2022-09-10T22:21:56.059Z,18.04
2022-09-10T22:24:26.046Z,18.36
2022-09-10T22:26:52.805Z,18.27
2022-09-10T22:29:20.459Z,18.21
2022-09-10T22:31:47.598Z,17.68
2022-09-10T22:34:16.084Z,17.94
2022-09-10T22:36:57.575Z,17.75
2022-09-10T22:39:32.049Z,17.52
2022-09-10T22:42:01.290Z,17.42
2022-09-10T22:44:28.035Z,17.47
2022-09-10T22:46:54.713Z,17.44
2022-09-10T22:49:23.684Z,17.22
2022-09-10T22:51:50.375Z,17.76
2022-09-10T22:54:17.353Z,17.40
2022-09-10T22:56:46.366Z,17.76
2022-09-10T22:59:18.887Z,17.11
2022-09-10T23:01:48.472Z,17.53
2022-09-10T23:04:23.372Z,17.63
2022-09-10T23:06:52.467Z,15.77
2022-09-10T23:09:19.234Z,17.95
2022-09-10T23:11:46.162Z,17.89
2022-09-10T23:14:19.310Z,17.98
2022-09-10T23:16:51.865Z,17.94
2022-09-10T23:19:24.203Z,18.02
2022-09-10T23:21:53.096Z,17.93
2022-09-10T23:24:27.887Z,17.81
2022-09-10T23:26:57.937Z,17.75
2022-09-10T23:29:29.445Z,18.01
2022-09-10T23:31:58.288Z,17.56
2022-09-10T23:34:24.985Z,17.95
2022-09-10T23:36:52.385Z,17.55
2022-09-10T23:39:21.376Z,17.82
2022-09-10T23:41:49.424Z,17.66
2022-09-10T23:44:17.409Z,17.12
2022-09-10T23:46:48.083Z,16.78
2022-09-10T23:49:15.116Z,17.69
2022-09-10T23:51:49.737Z,17.60
2022-09-10T23:54:17.288Z,17.57
2022-09-10T23:56:48.689Z,17.51
2022-09-10T23:59:15.454Z,16.95
